Time;durP1;ratioP1;P1;durP2;ratioP2;P2;SDS_P1;SDS_P2;PMS_P1;PMS_P2;Temp;Humidity;BMP_temperature;BMP_pressure;BME280_temperature;BME280_humidity;BME280_pressure;Samples;Min_cycle;Max_cycle;Signal;HPM_P1;HPM_P2
2022/04/08 00:00:54;;;;;;;0.10;0.10;;;;;;;;;;5134807;27;20103;-79
2022/04/08 00:03:20;;;;;;;0.10;0.10;;;;;;;;;;5134417;27;20100;-80
2022/04/08 00:05:46;;;;;;;0.10;0.10;;;;;;;;;;5134968;27;20061;-79
2022/04/08 00:08:12;;;;;;;0.10;0.10;;;;;;;;;;5135167;27;20027;-79
2022/04/08 00:10:38;;;;;;;0.10;0.10;;;;;;;;;;5134222;27;20027;-79
2022/04/08 00:13:04;;;;;;;0.10;0.10;;;;;;;;;;5134609;27;20523;-79
2022/04/08 00:15:33;;;;;;;0.10;0.10;;;;;;;;;;5134425;27;20019;-79
2022/04/08 00:17:59;;;;;;;0.15;0.15;;;;;;;;;;5134623;27;20020;-79
2022/04/08 00:20:26;;;;;;;0.10;0.10;;;;;;;;;;5134500;27;20024;-79
2022/04/08 00:22:53;;;;;;;0.10;0.10;;;;;;;;;;5116168;27;20059;-79
2022/04/08 00:25:19;;;;;;;0.10;0.10;;;;;;;;;;5134026;27;20027;-79
2022/04/08 00:27:45;;;;;;;0.10;0.10;;;;;;;;;;5134478;27;20098;-79
2022/04/08 00:30:11;;;;;;;0.10;0.10;;;;;;;;;;5134645;27;20027;-79
2022/04/08 00:32:38;;;;;;;0.10;0.10;;;;;;;;;;5133997;27;20387;-80
2022/04/08 00:35:04;;;;;;;0.10;0.10;;;;;;;;;;5134177;27;20035;-80
2022/04/08 00:37:30;;;;;;;0.10;0.10;;;;;;;;;;5134032;27;20019;-80
2022/04/08 00:39:56;;;;;;;0.10;0.10;;;;;;;;;;5097910;28;20038;-81
2022/04/08 00:42:22;;;;;;;0.10;0.10;;;;;;;;;;5113410;28;20148;-80
2022/04/08 00:44:48;;;;;;;0.10;0.10;;;;;;;;;;5113684;28;20108;-79
2022/04/08 00:47:15;;;;;;;0.10;0.10;;;;;;;;;;5113744;28;20027;-80
2022/04/08 00:49:41;;;;;;;0.10;0.10;;;;;;;;;;5095218;28;20387;-80
2022/04/08 00:52:08;;;;;;;0.10;0.10;;;;;;;;;;5114414;27;20076;-80
2022/04/08 00:54:34;;;;;;;0.10;0.10;;;;;;;;;;5133673;27;20111;-80
2022/04/08 00:57:00;;;;;;;0.10;0.10;;;;;;;;;;5133844;27;20094;-80
2022/04/08 00:59:26;;;;;;;0.10;0.10;;;;;;;;;;5133531;27;20030;-79
2022/04/08 01:01:53;;;;;;;0.10;0.10;;;;;;;;;;5133653;27;20030;-79
2022/04/08 01:04:21;;;;;;;0.10;0.10;;;;;;;;;;5133492;27;20027;-80
2022/04/08 01:06:47;;;;;;;0.10;0.10;;;;;;;;;;5133330;27;20060;-79
2022/04/08 01:09:13;;;;;;;0.10;0.10;;;;;;;;;;5114873;27;20376;-79
2022/04/08 01:11:39;;;;;;;0.10;0.10;;;;;;;;;;5114216;27;20026;-80
2022/04/08 01:14:12;;;;;;;0.10;0.10;;;;;;;;;;5133432;27;20035;-80
2022/04/08 01:16:38;;;;;;;0.10;0.10;;;;;;;;;;5114728;27;20020;-80
2022/04/08 01:19:04;;;;;;;0.10;0.10;;;;;;;;;;5114694;27;20080;-79
2022/04/08 01:21:31;;;;;;;0.10;0.10;;;;;;;;;;5132556;27;20024;-80
2022/04/08 01:23:58;;;;;;;0.10;0.10;;;;;;;;;;5133272;27;20026;-79
2022/04/08 01:26:24;;;;;;;0.10;0.10;;;;;;;;;;5133017;27;20055;-80
2022/04/08 01:28:51;;;;;;;0.10;0.10;;;;;;;;;;5133372;27;20022;-80
2022/04/08 01:31:18;;;;;;;0.10;0.10;;;;;;;;;;5132924;27;20058;-80
2022/04/08 01:33:44;;;;;;;0.20;0.20;;;;;;;;;;5133292;27;20027;-80
2022/04/08 01:36:10;;;;;;;0.10;0.10;;;;;;;;;;5132697;27;20031;-80
2022/04/08 01:38:36;;;;;;;0.10;0.10;;;;;;;;;;5132839;27;20027;-80
2022/04/08 01:41:02;;;;;;;0.10;0.10;;;;;;;;;;5132971;27;20031;-79
2022/04/08 01:43:28;;;;;;;0.00;0.00;;;;;;;;;;5114290;27;20091;-80
2022/04/08 01:45:54;;;;;;;0.03;0.03;;;;;;;;;;5132742;27;20098;-80
2022/04/08 01:48:20;;;;;;;0.10;0.10;;;;;;;;;;5132439;27;20093;-80
2022/04/08 01:50:46;;;;;;;0.10;0.10;;;;;;;;;;5132903;27;20024;-80
2022/04/08 01:53:15;;;;;;;0.10;0.10;;;;;;;;;;5114054;27;20422;-79
2022/04/08 01:55:41;;;;;;;0.10;0.10;;;;;;;;;;5133234;27;20083;-80
2022/04/08 01:58:07;;;;;;;0.10;0.10;;;;;;;;;;5114369;27;20429;-79
2022/04/08 02:00:33;;;;;;;0.10;0.10;;;;;;;;;;5131968;27;20019;-80
2022/04/08 02:03:00;;;;;;;0.10;0.10;;;;;;;;;;5132653;27;20019;-80
2022/04/08 02:05:26;;;;;;;0.10;0.10;;;;;;;;;;5132512;27;20055;-80
2022/04/08 02:07:53;;;;;;;0.10;0.10;;;;;;;;;;5132483;27;20026;-80
2022/04/08 02:10:19;;;;;;;0.13;0.13;;;;;;;;;;5114329;27;20370;-79
2022/04/08 02:12:45;;;;;;;0.10;0.10;;;;;;;;;;5132351;27;20023;-80
2022/04/08 02:15:12;;;;;;;0.10;0.10;;;;;;;;;;5132324;27;20035;-80
2022/04/08 02:17:38;;;;;;;0.10;0.10;;;;;;;;;;5132147;27;20487;-81
2022/04/08 02:20:04;;;;;;;0.10;0.10;;;;;;;;;;5132453;27;20475;-81
2022/04/08 02:22:31;;;;;;;0.10;0.10;;;;;;;;;;5131543;27;20112;-81
2022/04/08 02:24:58;;;;;;;0.10;0.10;;;;;;;;;;5113553;27;20110;-81
2022/04/08 02:27:26;;;;;;;0.10;0.10;;;;;;;;;;5131341;27;20027;-80
2022/04/08 02:29:52;;;;;;;0.10;0.10;;;;;;;;;;5132444;27;20058;-80
2022/04/08 02:32:18;;;;;;;0.10;0.10;;;;;;;;;;5131989;27;20026;-79
2022/04/08 02:34:45;;;;;;;0.10;0.10;;;;;;;;;;5132577;27;20505;-80
2022/04/08 02:37:11;;;;;;;0.10;0.10;;;;;;;;;;5132425;27;20540;-80
2022/04/08 02:39:37;;;;;;;0.10;0.10;;;;;;;;;;5113510;28;20023;-80
2022/04/08 02:42:03;;;;;;;0.10;0.10;;;;;;;;;;5113376;28;20028;-80
2022/04/08 02:44:30;;;;;;;0.10;0.10;;;;;;;;;;5113319;27;20475;-79
2022/04/08 02:46:57;;;;;;;0.10;0.10;;;;;;;;;;5132051;27;20027;-79
2022/04/08 02:49:23;;;;;;;0.10;0.10;;;;;;;;;;5131779;27;20028;-80
2022/04/08 02:51:49;;;;;;;0.10;0.10;;;;;;;;;;5132010;27;20031;-80
2022/04/08 02:54:15;;;;;;;0.10;0.10;;;;;;;;;;5113444;28;20031;-80
2022/04/08 02:56:42;;;;;;;0.10;0.10;;;;;;;;;;5131991;28;20163;-79
2022/04/08 02:59:08;;;;;;;0.10;0.10;;;;;;;;;;5113518;27;20114;-80
2022/04/08 03:01:34;;;;;;;0.10;0.10;;;;;;;;;;5131670;28;20375;-80
2022/04/08 03:04:00;;;;;;;0.10;0.10;;;;;;;;;;5113408;28;20059;-80
2022/04/08 03:06:26;;;;;;;0.10;0.10;;;;;;;;;;5131664;27;20106;-80
2022/04/08 03:08:52;;;;;;;0.10;0.10;;;;;;;;;;5132054;27;20495;-80
2022/04/08 03:11:19;;;;;;;0.10;0.10;;;;;;;;;;5131207;27;20033;-80
2022/04/08 03:13:45;;;;;;;0.10;0.10;;;;;;;;;;5131709;27;20104;-79
2022/04/08 03:16:11;;;;;;;0.00;0.00;;;;;;;;;;5132161;28;20023;-79
2022/04/08 03:18:37;;;;;;;0.10;0.10;;;;;;;;;;5113191;28;20027;-81
2022/04/08 03:21:03;;;;;;;0.10;0.10;;;;;;;;;;5097920;28;20115;-80
2022/04/08 03:23:29;;;;;;;0.10;0.10;;;;;;;;;;5111008;28;20103;-81
2022/04/08 03:25:55;;;;;;;0.10;0.10;;;;;;;;;;5093066;28;20059;-80
2022/04/08 03:28:21;;;;;;;0.10;0.10;;;;;;;;;;5110790;28;20080;-79
2022/04/08 03:30:47;;;;;;;0.10;0.10;;;;;;;;;;5111079;28;20092;-79
2022/04/08 03:33:13;;;;;;;0.10;0.10;;;;;;;;;;5111393;28;20038;-80
2022/04/08 03:35:39;;;;;;;0.10;0.10;;;;;;;;;;5127586;27;20110;-80
2022/04/08 03:38:06;;;;;;;0.10;0.10;;;;;;;;;;5135359;27;20027;-80
2022/04/08 03:40:34;;;;;;;0.10;0.10;;;;;;;;;;5135144;27;20027;-79
2022/04/08 03:43:00;;;;;;;0.10;0.10;;;;;;;;;;5116820;27;20483;-79
2022/04/08 03:45:26;;;;;;;0.10;0.10;;;;;;;;;;5116465;27;20055;-79
2022/04/08 03:47:52;;;;;;;0.10;0.10;;;;;;;;;;5116774;27;20031;-79
2022/04/08 03:50:18;;;;;;;0.10;0.10;;;;;;;;;;5134621;27;20084;-79
2022/04/08 03:52:45;;;;;;;0.10;0.10;;;;;;;;;;5135354;27;20023;-79
2022/04/08 03:55:11;;;;;;;0.10;0.10;;;;;;;;;;5135298;27;20036;-79
2022/04/08 03:57:37;;;;;;;0.10;0.10;;;;;;;;;;5134661;27;20068;-79
2022/04/08 04:00:03;;;;;;;0.10;0.10;;;;;;;;;;5134988;27;20027;-79
2022/04/08 04:02:29;;;;;;;0.10;0.10;;;;;;;;;;5134707;27;20027;-79
2022/04/08 04:04:59;;;;;;;0.10;0.10;;;;;;;;;;5134540;27;20574;-79
2022/04/08 04:07:26;;;;;;;0.10;0.10;;;;;;;;;;5134684;27;20045;-79
2022/04/08 04:09:52;;;;;;;0.10;0.10;;;;;;;;;;5116308;27;20060;-79
2022/04/08 04:12:18;;;;;;;0.10;0.10;;;;;;;;;;5134383;27;20027;-78
2022/04/08 04:14:44;;;;;;;0.10;0.10;;;;;;;;;;5134967;27;20040;-80
2022/04/08 04:17:11;;;;;;;0.10;0.10;;;;;;;;;;5116372;27;20114;-80
2022/04/08 04:19:37;;;;;;;0.20;0.20;;;;;;;;;;5133951;27;20023;-80
2022/04/08 04:22:03;;;;;;;0.10;0.10;;;;;;;;;;5116068;27;20019;-80
2022/04/08 04:24:29;;;;;;;0.10;0.10;;;;;;;;;;5115693;27;20044;-80
2022/04/08 04:26:55;;;;;;;0.10;0.10;;;;;;;;;;5116079;27;20494;-80
2022/04/08 04:29:21;;;;;;;0.10;0.10;;;;;;;;;;5134173;27;20019;-79
2022/04/08 04:31:47;;;;;;;0.10;0.10;;;;;;;;;;5133927;27;20038;-79
2022/04/08 04:34:14;;;;;;;0.10;0.10;;;;;;;;;;5134540;27;20053;-80
2022/04/08 04:36:40;;;;;;;0.10;0.10;;;;;;;;;;5115906;27;20027;-80
2022/04/08 04:39:06;;;;;;;0.10;0.10;;;;;;;;;;5134207;27;20161;-80
2022/04/08 04:41:32;;;;;;;0.10;0.10;;;;;;;;;;5133996;27;20521;-80
2022/04/08 04:43:58;;;;;;;0.10;0.10;;;;;;;;;;5115751;27;20482;-80
2022/04/08 04:46:24;;;;;;;0.10;0.10;;;;;;;;;;5132441;27;20034;-79
2022/04/08 04:48:50;;;;;;;0.10;0.10;;;;;;;;;;5133930;27;20027;-79
2022/04/08 04:51:17;;;;;;;0.10;0.10;;;;;;;;;;5115301;27;20058;-79
2022/04/08 04:53:43;;;;;;;0.10;0.10;;;;;;;;;;5115666;27;20032;-79
2022/04/08 04:56:09;;;;;;;0.10;0.10;;;;;;;;;;5133792;27;20072;-79
2022/04/08 04:58:35;;;;;;;0.10;0.10;;;;;;;;;;5133547;27;20027;-80
2022/04/08 05:01:01;;;;;;;0.10;0.10;;;;;;;;;;5114343;27;20095;-79
2022/04/08 05:03:27;;;;;;;0.10;0.10;;;;;;;;;;5133199;27;20019;-79
2022/04/08 05:05:53;;;;;;;0.10;0.10;;;;;;;;;;5133423;27;20110;-79
2022/04/08 05:08:22;;;;;;;0.13;0.13;;;;;;;;;;5114866;27;20505;-79
2022/04/08 05:10:48;;;;;;;0.10;0.10;;;;;;;;;;5132307;27;20044;-79
2022/04/08 05:13:14;;;;;;;0.10;0.10;;;;;;;;;;5121652;27;20114;-79
2022/04/08 05:15:42;;;;;;;0.10;0.10;;;;;;;;;;5128210;27;20499;-79
2022/04/08 05:18:12;;;;;;;0.10;0.10;;;;;;;;;;5116109;27;20386;-79
2022/04/08 05:20:38;;;;;;;0.10;0.10;;;;;;;;;;5113851;27;20080;-79
2022/04/08 05:23:04;;;;;;;0.10;0.10;;;;;;;;;;5132976;27;20066;-79
2022/04/08 05:25:30;;;;;;;0.10;0.10;;;;;;;;;;5133128;27;20037;-79
2022/04/08 05:27:56;;;;;;;0.10;0.10;;;;;;;;;;5105730;28;20054;-79
2022/04/08 05:30:22;;;;;;;0.10;0.10;;;;;;;;;;5112474;28;20035;-79
2022/04/08 05:32:52;;;;;;;0.10;0.10;;;;;;;;;;5116555;27;20100;-79
2022/04/08 05:35:18;;;;;;;0.10;0.10;;;;;;;;;;5102497;28;20027;-79
2022/04/08 05:37:45;;;;;;;0.10;0.10;;;;;;;;;;5095088;28;20386;-79
2022/04/08 05:40:11;;;;;;;0.10;0.10;;;;;;;;;;5131570;27;20317;-78
2022/04/08 05:42:39;;;;;;;0.10;0.10;;;;;;;;;;5132364;27;20061;-79
2022/04/08 05:45:06;;;;;;;0.10;0.10;;;;;;;;;;5114503;27;20037;-79
2022/04/08 05:47:34;;;;;;;0.10;0.10;;;;;;;;;;5132613;27;20019;-78
2022/04/08 05:50:00;;;;;;;0.10;0.10;;;;;;;;;;5132618;27;20075;-78
2022/04/08 05:52:26;;;;;;;0.10;0.10;;;;;;;;;;5132055;27;20026;-77
2022/04/08 05:54:52;;;;;;;0.10;0.10;;;;;;;;;;5113814;27;20478;-78
2022/04/08 05:57:21;;;;;;;0.20;0.20;;;;;;;;;;5132174;27;20060;-79
2022/04/08 05:59:48;;;;;;;0.10;0.10;;;;;;;;;;5132646;27;20099;-79
2022/04/08 06:02:14;;;;;;;0.10;0.10;;;;;;;;;;5132856;27;20027;-79
2022/04/08 06:04:40;;;;;;;0.10;0.10;;;;;;;;;;5114025;27;20012;-79
2022/04/08 06:07:06;;;;;;;0.10;0.10;;;;;;;;;;5113396;27;20038;-79
2022/04/08 06:09:32;;;;;;;0.10;0.10;;;;;;;;;;5132025;27;20027;-79
2022/04/08 06:11:59;;;;;;;0.10;0.10;;;;;;;;;;5132375;27;20518;-81
2022/04/08 06:14:26;;;;;;;0.10;0.10;;;;;;;;;;5113780;27;20490;-81
2022/04/08 06:16:52;;;;;;;0.10;0.10;;;;;;;;;;5132378;27;20073;-80
2022/04/08 06:19:18;;;;;;;0.10;0.10;;;;;;;;;;5132253;27;20063;-80
2022/04/08 06:21:44;;;;;;;0.10;0.10;;;;;;;;;;5132021;27;20023;-80
2022/04/08 06:24:10;;;;;;;0.10;0.10;;;;;;;;;;5131962;27;20019;-80
2022/04/08 06:26:38;;;;;;;0.10;0.10;;;;;;;;;;5131932;27;20019;-80
2022/04/08 06:29:05;;;;;;;0.10;0.10;;;;;;;;;;5111579;28;20118;-78
2022/04/08 06:31:34;;;;;;;0.10;0.10;;;;;;;;;;5118177;27;20022;-80
2022/04/08 06:34:01;;;;;;;0.10;0.10;;;;;;;;;;5111246;28;20474;-80
2022/04/08 06:36:27;;;;;;;0.10;0.10;;;;;;;;;;5097456;28;20020;-80
2022/04/08 06:38:53;;;;;;;0.10;0.10;;;;;;;;;;5132180;27;20145;-80
2022/04/08 06:41:19;;;;;;;0.10;0.10;;;;;;;;;;5130782;27;20055;-79
2022/04/08 06:43:45;;;;;;;0.17;0.17;;;;;;;;;;5112704;28;20052;-79
2022/04/08 06:46:12;;;;;;;0.10;0.10;;;;;;;;;;5103878;28;20364;-81
2022/04/08 06:48:38;;;;;;;0.10;0.10;;;;;;;;;;5109974;28;20388;-85
2022/04/08 06:51:07;;;;;;;0.10;0.10;;;;;;;;;;5111537;28;20019;-82
2022/04/08 06:53:33;;;;;;;0.10;0.10;;;;;;;;;;5111715;28;20510;-83
2022/04/08 06:56:01;;;;;;;0.10;0.10;;;;;;;;;;5114934;28;20022;-81
2022/04/08 06:58:27;;;;;;;0.10;0.10;;;;;;;;;;5133833;27;20030;-81
2022/04/08 07:00:53;;;;;;;0.10;0.10;;;;;;;;;;5131856;27;20023;-81
2022/04/08 07:03:19;;;;;;;0.10;0.10;;;;;;;;;;5131226;27;20023;-81
2022/04/08 07:05:46;;;;;;;0.10;0.10;;;;;;;;;;5120990;28;20028;-82
2022/04/08 07:08:12;;;;;;;0.10;0.10;;;;;;;;;;5103872;28;20028;-79
2022/04/08 07:10:41;;;;;;;0.10;0.10;;;;;;;;;;5128400;27;20489;-83
2022/04/08 07:13:07;;;;;;;0.10;0.10;;;;;;;;;;5115010;27;20114;-83
2022/04/08 07:15:33;;;;;;;0.10;0.10;;;;;;;;;;5105817;27;20019;-81
2022/04/08 07:17:59;;;;;;;0.10;0.10;;;;;;;;;;5128601;27;20448;-86
2022/04/08 07:20:25;;;;;;;0.10;0.10;;;;;;;;;;5117408;27;20418;-80
2022/04/08 07:22:52;;;;;;;0.10;0.10;;;;;;;;;;5117245;27;20028;-82
2022/04/08 07:25:18;;;;;;;0.10;0.10;;;;;;;;;;5134987;27;20102;-81
2022/04/08 07:27:45;;;;;;;0.10;0.10;;;;;;;;;;5131765;27;20394;-82
2022/04/08 07:30:12;;;;;;;0.10;0.10;;;;;;;;;;5116658;27;20031;-81
2022/04/08 07:32:38;;;;;;;0.10;0.10;;;;;;;;;;5134696;27;20031;-82
2022/04/08 07:35:04;;;;;;;0.10;0.10;;;;;;;;;;5135620;27;20088;-81
2022/04/08 07:37:30;;;;;;;0.10;0.10;;;;;;;;;;5125439;27;20042;-82
2022/04/08 07:39:57;;;;;;;0.10;0.10;;;;;;;;;;5124491;27;20066;-82
2022/04/08 07:42:23;;;;;;;0.10;0.10;;;;;;;;;;5134443;27;20432;-81
2022/04/08 07:44:49;;;;;;;0.10;0.10;;;;;;;;;;5135223;27;20027;-82
2022/04/08 07:47:16;;;;;;;0.10;0.10;;;;;;;;;;5135120;27;20023;-79
2022/04/08 07:49:42;;;;;;;0.10;0.10;;;;;;;;;;5135053;27;20042;-82
2022/04/08 07:52:08;;;;;;;0.10;0.10;;;;;;;;;;5116837;27;20439;-81
2022/04/08 07:54:34;;;;;;;0.10;0.10;;;;;;;;;;5134375;27;20031;-79
2022/04/08 07:57:00;;;;;;;0.10;0.10;;;;;;;;;;5116543;27;20019;-83
2022/04/08 07:59:26;;;;;;;0.10;0.10;;;;;;;;;;5135106;27;20029;-81
2022/04/08 08:01:52;;;;;;;0.13;0.13;;;;;;;;;;5134996;27;20019;-81
2022/04/08 08:04:18;;;;;;;0.10;0.10;;;;;;;;;;5132148;27;20387;-79
2022/04/08 08:06:44;;;;;;;0.10;0.10;;;;;;;;;;5119420;27;20028;-79
2022/04/08 08:09:10;;;;;;;0.10;0.10;;;;;;;;;;5108742;27;20111;-79
2022/04/08 08:11:36;;;;;;;0.10;0.10;;;;;;;;;;5117005;27;20111;-79
2022/04/08 08:14:03;;;;;;;0.10;0.10;;;;;;;;;;5140542;27;20059;-79
2022/04/08 08:16:29;;;;;;;0.10;0.10;;;;;;;;;;5116012;27;20050;-79
2022/04/08 08:18:56;;;;;;;0.10;0.10;;;;;;;;;;5134553;27;20436;-79
2022/04/08 08:21:25;;;;;;;0.10;0.10;;;;;;;;;;5134282;27;20019;-79
2022/04/08 08:23:52;;;;;;;0.10;0.10;;;;;;;;;;5115827;27;20031;-79
2022/04/08 08:26:18;;;;;;;0.20;0.20;;;;;;;;;;5134256;27;20026;-79
2022/04/08 08:28:44;;;;;;;0.10;0.10;;;;;;;;;;5134664;27;20027;-79
2022/04/08 08:31:10;;;;;;;0.10;0.10;;;;;;;;;;5116101;27;20100;-79
2022/04/08 08:33:36;;;;;;;0.10;0.10;;;;;;;;;;5115528;27;20072;-79
2022/04/08 08:36:02;;;;;;;0.10;0.10;;;;;;;;;;5116003;27;20037;-79
2022/04/08 08:38:28;;;;;;;0.10;0.10;;;;;;;;;;5133993;27;20558;-80
2022/04/08 08:40:55;;;;;;;0.10;0.10;;;;;;;;;;5134087;27;20106;-79
2022/04/08 08:43:21;;;;;;;0.10;0.10;;;;;;;;;;5115459;27;20051;-79
2022/04/08 08:45:48;;;;;;;0.20;0.20;;;;;;;;;;5134003;27;20488;-79
2022/04/08 08:48:17;;;;;;;0.10;0.10;;;;;;;;;;5134258;27;20102;-79
2022/04/08 08:50:45;;;;;;;0.10;0.10;;;;;;;;;;5134440;27;20026;-79
2022/04/08 08:53:13;;;;;;;0.10;0.10;;;;;;;;;;5134137;27;20428;-79
2022/04/08 08:55:39;;;;;;;0.10;0.10;;;;;;;;;;5133785;27;20459;-79
2022/04/08 08:58:05;;;;;;;0.10;0.10;;;;;;;;;;5133921;27;20449;-79
2022/04/08 09:00:31;;;;;;;0.10;0.10;;;;;;;;;;5133689;27;20029;-79
2022/04/08 09:02:57;;;;;;;0.10;0.10;;;;;;;;;;5133732;27;20195;-79
2022/04/08 09:05:24;;;;;;;0.20;0.20;;;;;;;;;;5133505;27;20431;-79
2022/04/08 09:08:00;;;;;;;0.20;0.20;;;;;;;;;;5133771;27;20424;-79
2022/04/08 09:10:26;;;;;;;;;;;;;;;;;;5133765;27;20136;-79
2022/04/08 09:12:52;;;;;;;;;;;;;;;;;;5133994;27;20389;-79
2022/04/08 09:15:18;;;;;;;0.10;0.10;;;;;;;;;;5133291;27;19907;-80
2022/04/08 09:17:44;;;;;;;0.10;0.10;;;;;;;;;;5133587;27;20042;-79
2022/04/08 09:20:11;;;;;;;0.10;0.10;;;;;;;;;;5133582;27;20383;-80
2022/04/08 09:22:38;;;;;;;0.10;0.10;;;;;;;;;;5113826;27;20027;-79
2022/04/08 09:25:10;;;;;;;0.10;0.10;;;;;;;;;;5109806;27;20015;-79
2022/04/08 09:27:37;;;;;;;0.10;0.10;;;;;;;;;;5132991;27;20562;-79
2022/04/08 09:30:03;;;;;;;0.10;0.10;;;;;;;;;;5133273;27;20019;-79
2022/04/08 09:32:29;;;;;;;0.10;0.10;;;;;;;;;;5132285;27;20487;-79
2022/04/08 09:34:55;;;;;;;0.10;0.10;;;;;;;;;;5114566;27;20029;-79
2022/04/08 09:37:21;;;;;;;0.10;0.10;;;;;;;;;;5132869;27;20504;-79
2022/04/08 09:40:00;;;;;;;0.10;0.10;;;;;;;;;;5132545;27;20386;-79
2022/04/08 09:42:45;;;;;;;0.10;0.10;;;;;;;;;;5132814;27;20111;-79
2022/04/08 09:45:12;;;;;;;0.20;0.20;;;;;;;;;;5133239;27;20486;-79
2022/04/08 09:47:38;;;;;;;0.10;0.10;;;;;;;;;;5132701;27;20019;-79
2022/04/08 09:50:11;;;;;;;0.10;0.10;;;;;;;;;;5132735;27;20033;-79
2022/04/08 09:52:40;;;;;;;0.10;0.10;;;;;;;;;;5131801;27;20019;-79
2022/04/08 09:55:07;;;;;;;0.10;0.10;;;;;;;;;;5132769;27;20031;-79
2022/04/08 09:57:36;;;;;;;0.10;0.10;;;;;;;;;;5132472;27;20019;-79
2022/04/08 10:00:03;;;;;;;0.10;0.10;;;;;;;;;;5132677;27;20035;-79
2022/04/08 10:02:30;;;;;;;0.10;0.10;;;;;;;;;;5132494;27;20431;-79
2022/04/08 10:04:56;;;;;;;0.20;0.20;;;;;;;;;;5112402;27;20035;-79
2022/04/08 10:07:22;;;;;;;0.10;0.10;;;;;;;;;;5132406;27;20015;-80
2022/04/08 10:09:58;;;;;;;0.10;0.10;;;;;;;;;;5132880;27;20027;-79
2022/04/08 10:12:39;;;;;;;0.10;0.10;;;;;;;;;;5109484;27;20486;-79
2022/04/08 10:15:11;;;;;;;0.10;0.10;;;;;;;;;;5113763;27;20576;-79
2022/04/08 10:17:37;;;;;;;0.10;0.10;;;;;;;;;;5132458;27;20030;-80
2022/04/08 10:20:22;;;;;;;0.10;0.10;;;;;;;;;;5114340;27;20035;-79
2022/04/08 10:22:48;;;;;;;0.17;0.17;;;;;;;;;;5132311;27;20030;-80
2022/04/08 10:25:18;;;;;;;0.10;0.10;;;;;;;;;;5132634;27;20102;-79
2022/04/08 10:27:45;;;;;;;0.10;0.10;;;;;;;;;;5113807;27;20028;-80
2022/04/08 10:30:11;;;;;;;0.10;0.10;;;;;;;;;;5114194;28;20027;-79
2022/04/08 10:32:38;;;;;;;0.10;0.10;;;;;;;;;;5132113;27;20024;-79
2022/04/08 10:35:18;;;;;;;0.10;0.10;;;;;;;;;;5114435;27;20084;-80
2022/04/08 10:37:58;;;;;;;0.10;0.10;;;;;;;;;;5114407;28;20023;-80
2022/04/08 10:40:38;;;;;;;0.10;0.10;;;;;;;;;;5113499;28;20069;-80
2022/04/08 10:43:05;;;;;;;0.10;0.10;;;;;;;;;;5111906;27;20027;-79
2022/04/08 10:45:31;;;;;;;0.10;0.10;;;;;;;;;;5134939;27;20498;-78
2022/04/08 10:48:09;;;;;;;0.10;0.10;;;;;;;;;;5136429;27;20094;-78
2022/04/08 10:50:36;;;;;;;0.10;0.10;;;;;;;;;;5132922;27;20371;-78
2022/04/08 10:53:28;;;;;;;0.10;0.10;;;;;;;;;;5116891;27;20038;-78
2022/04/08 10:55:56;;;;;;;0.10;0.10;;;;;;;;;;5131525;27;20039;-78
2022/04/08 10:58:41;;;;;;;0.10;0.10;;;;;;;;;;5098027;28;20470;-78
2022/04/08 11:01:19;;;;;;;0.10;0.10;;;;;;;;;;5127994;27;20042;-78
2022/04/08 11:03:52;;;;;;;0.15;0.15;;;;;;;;;;5115794;28;20468;-78
2022/04/08 11:06:19;;;;;;;0.10;0.10;;;;;;;;;;5106124;27;20114;-78
2022/04/08 11:08:45;;;;;;;0.10;0.10;;;;;;;;;;5135844;27;20106;-78
2022/04/08 11:11:11;;;;;;;0.10;0.10;;;;;;;;;;5134875;27;20042;-77
2022/04/08 11:13:44;;;;;;;0.10;0.10;;;;;;;;;;5117068;27;20035;-78
2022/04/08 11:16:10;;;;;;;0.10;0.10;;;;;;;;;;5135858;27;20024;-77
2022/04/08 11:18:36;;;;;;;0.10;0.10;;;;;;;;;;5116710;27;20031;-76
2022/04/08 11:21:02;;;;;;;0.10;0.10;;;;;;;;;;5135965;27;20026;-80
2022/04/08 11:23:29;;;;;;;0.10;0.10;;;;;;;;;;5135986;27;20110;-84
2022/04/08 11:25:55;;;;;;;0.10;0.10;;;;;;;;;;5117113;27;20031;-79
2022/04/08 11:28:22;;;;;;;0.10;0.10;;;;;;;;;;5116976;27;20030;-78
2022/04/08 11:30:54;;;;;;;0.10;0.10;;;;;;;;;;5135609;27;20016;-79
2022/04/08 11:33:20;;;;;;;0.10;0.10;;;;;;;;;;5135527;27;20052;-80
2022/04/08 11:35:47;;;;;;;0.10;0.10;;;;;;;;;;5121931;27;20018;-80
2022/04/08 11:38:17;;;;;;;0.10;0.10;;;;;;;;;;5112384;27;20023;-80
2022/04/08 11:40:43;;;;;;;0.10;0.10;;;;;;;;;;5124461;27;20028;-78
2022/04/08 11:43:12;;;;;;;0.10;0.10;;;;;;;;;;5132093;27;20435;-80
2022/04/08 11:45:38;;;;;;;0.10;0.10;;;;;;;;;;5135190;27;20027;-79
2022/04/08 11:48:06;;;;;;;0.10;0.10;;;;;;;;;;5117011;27;20471;-79
2022/04/08 11:50:35;;;;;;;0.10;0.10;;;;;;;;;;5135182;27;20067;-78
2022/04/08 11:53:02;;;;;;;0.10;0.10;;;;;;;;;;5117023;27;20483;-82
2022/04/08 11:55:29;;;;;;;0.10;0.10;;;;;;;;;;5116301;27;20482;-79
2022/04/08 11:57:55;;;;;;;0.03;0.03;;;;;;;;;;5135028;27;20026;-79
2022/04/08 12:00:28;;;;;;;0.10;0.10;;;;;;;;;;5116383;27;20027;-76
2022/04/08 12:02:58;;;;;;;0.10;0.10;;;;;;;;;;5116418;27;20051;-77
2022/04/08 12:05:31;;;;;;;0.10;0.10;;;;;;;;;;5134810;27;20127;-81
2022/04/08 12:07:59;;;;;;;0.10;0.10;;;;;;;;;;5134879;27;20015;-76
2022/04/08 12:10:26;;;;;;;0.10;0.10;;;;;;;;;;5116260;27;20094;-77
2022/04/08 12:12:53;;;;;;;0.10;0.10;;;;;;;;;;5134728;27;20023;-77
2022/04/08 12:15:21;;;;;;;0.10;0.10;;;;;;;;;;5134362;27;20498;-76
2022/04/08 12:17:47;;;;;;;0.10;0.10;;;;;;;;;;5134684;27;20015;-78
2022/04/08 12:20:14;;;;;;;0.10;0.10;;;;;;;;;;5134944;27;20035;-77
2022/04/08 12:22:40;;;;;;;0.10;0.10;;;;;;;;;;5134992;27;20022;-77
2022/04/08 12:25:07;;;;;;;0.10;0.10;;;;;;;;;;5134582;27;20027;-78
2022/04/08 12:27:34;;;;;;;0.10;0.10;;;;;;;;;;5115797;27;20019;-77
2022/04/08 12:30:00;;;;;;;0.10;0.10;;;;;;;;;;5134318;27;20031;-77
2022/04/08 12:32:33;;;;;;;0.10;0.10;;;;;;;;;;5134178;27;20022;-75
2022/04/08 12:34:59;;;;;;;0.20;0.20;;;;;;;;;;5134438;27;20062;-76
2022/04/08 12:37:25;;;;;;;0.10;0.10;;;;;;;;;;5134130;27;20058;-76
2022/04/08 12:39:51;;;;;;;0.10;0.10;;;;;;;;;;5115925;27;20483;-76
2022/04/08 12:42:17;;;;;;;0.10;0.10;;;;;;;;;;5133890;27;20026;-77
2022/04/08 12:44:43;;;;;;;0.10;0.10;;;;;;;;;;5134522;27;20019;-77
2022/04/08 12:47:10;;;;;;;0.10;0.10;;;;;;;;;;5134173;27;20027;-78
2022/04/08 12:49:36;;;;;;;0.10;0.10;;;;;;;;;;5133709;27;20019;-78
2022/04/08 12:52:02;;;;;;;0.10;0.10;;;;;;;;;;5134059;27;20027;-78
2022/04/08 12:54:29;;;;;;;0.10;0.10;;;;;;;;;;5133664;27;20035;-78
2022/04/08 12:56:54;;;;;;;0.10;0.10;;;;;;;;;;5133935;27;20019;-78
2022/04/08 12:59:20;;;;;;;0.10;0.10;;;;;;;;;;5134419;27;20094;-78
2022/04/08 13:01:46;;;;;;;0.10;0.10;;;;;;;;;;5139526;27;20386;-79
2022/04/08 13:04:13;;;;;;;0.05;0.05;;;;;;;;;;5133901;27;20027;-79
2022/04/08 13:06:39;;;;;;;0.10;0.10;;;;;;;;;;5132902;27;20019;-77
2022/04/08 13:09:05;;;;;;;0.10;0.10;;;;;;;;;;5133400;27;20030;-77
2022/04/08 13:11:32;;;;;;;0.10;0.10;;;;;;;;;;5133378;27;20457;-78
2022/04/08 13:13:58;;;;;;;0.10;0.10;;;;;;;;;;5133836;27;20028;-82
2022/04/08 13:16:24;;;;;;;0.10;0.10;;;;;;;;;;5133949;27;20027;-81
2022/04/08 13:18:50;;;;;;;0.17;0.17;;;;;;;;;;5134518;27;20031;-81
2022/04/08 13:21:16;;;;;;;0.10;0.10;;;;;;;;;;5134636;27;20027;-79
2022/04/08 13:23:42;;;;;;;0.10;0.10;;;;;;;;;;5136935;27;20023;-78
2022/04/08 13:26:08;;;;;;;0.10;0.10;;;;;;;;;;5133451;27;20019;-79
2022/04/08 13:28:34;;;;;;;0.10;0.10;;;;;;;;;;5133238;27;20467;-78
2022/04/08 13:31:00;;;;;;;0.10;0.10;;;;;;;;;;5133384;27;20094;-78
2022/04/08 13:33:26;;;;;;;0.20;0.20;;;;;;;;;;5133175;27;20164;-78
2022/04/08 13:35:56;;;;;;;0.10;0.10;;;;;;;;;;5133432;27;20547;-78
2022/04/08 13:38:23;;;;;;;0.10;0.10;;;;;;;;;;5114783;27;20113;-81
2022/04/08 13:40:50;;;;;;;0.10;0.10;;;;;;;;;;5114670;27;20026;-79
2022/04/08 13:43:16;;;;;;;0.10;0.10;;;;;;;;;;5114376;27;20414;-80
2022/04/08 13:45:42;;;;;;;0.10;0.10;;;;;;;;;;5115318;27;20023;-78
2022/04/08 13:48:08;;;;;;;0.10;0.10;;;;;;;;;;5114767;27;20451;-79
2022/04/08 13:50:34;;;;;;;0.10;0.10;;;;;;;;;;5132719;27;20106;-78
2022/04/08 13:53:01;;;;;;;0.10;0.10;;;;;;;;;;5114380;27;20023;-78
2022/04/08 13:55:27;;;;;;;0.10;0.10;;;;;;;;;;5133320;27;20027;-78
2022/04/08 13:57:54;;;;;;;0.10;0.10;;;;;;;;;;5133964;27;20047;-78
2022/04/08 14:00:20;;;;;;;0.10;0.10;;;;;;;;;;5133550;27;20543;-79
2022/04/08 14:02:46;;;;;;;0.15;0.15;;;;;;;;;;5115281;27;20055;-78
2022/04/08 14:05:12;;;;;;;0.10;0.10;;;;;;;;;;5133286;27;20501;-78
2022/04/08 14:07:38;;;;;;;0.10;0.10;;;;;;;;;;5114423;27;20027;-79
2022/04/08 14:10:05;;;;;;;0.10;0.10;;;;;;;;;;5133670;27;20103;-78
2022/04/08 14:12:31;;;;;;;0.15;0.15;;;;;;;;;;5132914;27;20543;-78
2022/04/08 14:14:57;;;;;;;0.10;0.10;;;;;;;;;;5132687;27;20109;-78
2022/04/08 14:17:23;;;;;;;0.10;0.10;;;;;;;;;;5133008;27;20368;-79
2022/04/08 14:19:49;;;;;;;0.10;0.10;;;;;;;;;;5133130;27;20019;-78
2022/04/08 14:22:15;;;;;;;0.10;0.10;;;;;;;;;;5132805;27;20023;-79
2022/04/08 14:24:41;;;;;;;0.10;0.10;;;;;;;;;;5132729;27;20027;-78
2022/04/08 14:27:07;;;;;;;0.10;0.10;;;;;;;;;;5132675;27;20081;-77
2022/04/08 14:29:33;;;;;;;0.10;0.10;;;;;;;;;;5132903;27;20380;-78
2022/04/08 14:31:59;;;;;;;0.10;0.10;;;;;;;;;;5114746;27;20031;-78
2022/04/08 14:34:25;;;;;;;0.10;0.10;;;;;;;;;;5132606;27;20027;-78
2022/04/08 14:36:51;;;;;;;0.20;0.20;;;;;;;;;;5113839;27;20091;-78
2022/04/08 14:39:17;;;;;;;0.10;0.10;;;;;;;;;;5132554;27;20027;-78
2022/04/08 14:41:44;;;;;;;0.10;0.10;;;;;;;;;;5132550;27;20020;-77